createdAt,value
2023-02-28T00:01:38.081Z,5.20
2023-02-28T00:04:10.394Z,5.20
2023-02-28T00:06:38.820Z,5.20
2023-02-28T00:09:07.102Z,5.20
2023-02-28T00:11:35.431Z,5.20
2023-02-28T00:14:03.988Z,5.20
2023-02-28T00:16:32.371Z,5.20
2023-02-28T00:19:00.734Z,5.30
2023-02-28T00:21:30.811Z,5.20
2023-02-28T00:23:59.359Z,5.20
2023-02-28T00:26:27.707Z,5.10
2023-02-28T00:28:56.130Z,5.30
2023-02-28T00:31:25.105Z,5.30
2023-02-28T00:33:53.499Z,5.10
2023-02-28T00:36:22.910Z,5.10
2023-02-28T00:38:52.661Z,5.10
2023-02-28T00:41:21.312Z,5.10
2023-02-28T00:43:49.667Z,5.20
2023-02-28T00:46:18.133Z,5.10
2023-02-28T00:48:46.518Z,5.00
2023-02-28T00:51:14.995Z,5.00
2023-02-28T00:53:43.520Z,5.00
2023-02-28T00:56:13.240Z,5.20
2023-02-28T00:58:41.624Z,5.00
2023-02-28T01:01:10.057Z,4.90
2023-02-28T01:03:40.411Z,4.90
2023-02-28T01:06:09.277Z,5.00
2023-02-28T01:08:37.634Z,4.90
2023-02-28T01:11:19.058Z,5.00
2023-02-28T01:13:48.605Z,4.80
2023-02-28T01:16:17.046Z,4.80
2023-02-28T01:18:45.888Z,4.80
2023-02-28T01:21:17.998Z,4.80
2023-02-28T01:23:47.522Z,4.80
2023-02-28T01:26:20.005Z,4.80
2023-02-28T01:28:50.195Z,4.70
2023-02-28T01:31:19.739Z,4.70
2023-02-28T01:34:11.386Z,4.90
2023-02-28T01:36:39.737Z,4.70
2023-02-28T01:39:08.216Z,4.70
2023-02-28T01:41:37.999Z,4.70
2023-02-28T01:44:09.041Z,4.70
2023-02-28T01:46:38.454Z,4.70
2023-02-28T01:49:11.043Z,4.70
2023-02-28T01:51:46.680Z,4.70
2023-02-28T01:54:19.311Z,4.60
2023-02-28T01:56:54.942Z,4.60
2023-02-28T01:59:29.237Z,4.60
2023-02-28T02:01:57.922Z,4.60
2023-02-28T02:04:32.777Z,4.70
2023-02-28T02:07:01.466Z,4.60
2023-02-28T02:09:29.804Z,4.60
2023-02-28T02:12:01.437Z,4.60
2023-02-28T02:15:00.555Z,4.80
2023-02-28T02:17:38.132Z,4.60
2023-02-28T02:20:57.965Z,4.50
2023-02-28T02:23:52.001Z,4.50
2023-02-28T02:26:54.405Z,4.50
2023-02-28T02:29:49.047Z,4.50
2023-02-28T02:32:36.400Z,4.40
2023-02-28T02:35:16.954Z,4.40
2023-02-28T02:37:52.958Z,4.40
2023-02-28T02:40:24.691Z,4.40
2023-02-28T02:42:58.663Z,4.40
2023-02-28T02:45:36.314Z,4.50
2023-02-28T02:48:09.429Z,4.30
2023-02-28T02:50:43.916Z,4.30
2023-02-28T02:53:14.905Z,4.30
2023-02-28T02:55:48.280Z,4.50
2023-02-28T02:58:21.336Z,4.30
2023-02-28T03:01:02.246Z,4.30
2023-02-28T03:03:33.294Z,4.30
2023-02-28T03:06:04.945Z,4.30
2023-02-28T03:08:39.992Z,4.30
2023-02-28T03:11:15.902Z,4.30
2023-02-28T03:14:19.909Z,4.30
2023-02-28T03:17:25.992Z,4.30
2023-02-28T03:20:08.982Z,4.30
2023-02-28T03:23:05.579Z,4.30
2023-02-28T03:25:40.263Z,4.30
2023-02-28T03:28:20.312Z,4.30
2023-02-28T03:30:54.758Z,4.30
2023-02-28T03:33:28.258Z,4.30
2023-02-28T03:36:01.341Z,4.30
2023-02-28T03:38:36.578Z,4.40
2023-02-28T03:41:12.646Z,4.40
2023-02-28T03:43:45.746Z,4.30
2023-02-28T03:46:22.164Z,4.40
2023-02-28T03:48:57.002Z,4.30
2023-02-28T03:51:28.796Z,4.50
2023-02-28T03:54:02.128Z,4.20
2023-02-28T03:56:36.914Z,4.30
2023-02-28T03:59:11.137Z,4.30
2023-02-28T04:01:43.319Z,4.40
2023-02-28T04:04:13.308Z,4.40
2023-02-28T04:06:42.776Z,4.20
2023-02-28T04:09:15.094Z,4.20
2023-02-28T04:11:47.255Z,4.40
2023-02-28T04:14:16.116Z,4.30
2023-02-28T04:16:55.495Z,4.20
2023-02-28T04:19:23.912Z,4.10
2023-02-28T04:21:54.284Z,4.10
2023-02-28T04:24:25.807Z,4.10
2023-02-28T04:26:57.140Z,4.10
2023-02-28T04:29:28.879Z,4.10
2023-02-28T04:32:00.033Z,4.10
2023-02-28T04:34:29.247Z,4.10
2023-02-28T04:37:14.504Z,4.10
2023-02-28T04:39:44.763Z,4.00
2023-02-28T04:42:14.312Z,4.00
2023-02-28T04:44:42.639Z,4.00
2023-02-28T04:47:11.073Z,4.00
2023-02-28T04:49:39.415Z,4.00
2023-02-28T04:52:08.648Z,4.00
2023-02-28T04:54:37.110Z,4.10
2023-02-28T04:57:07.018Z,3.90
2023-02-28T04:59:35.522Z,4.00
2023-02-28T05:02:07.742Z,3.90
2023-02-28T05:04:36.780Z,3.90
2023-02-28T05:07:05.772Z,3.90
2023-02-28T05:09:34.991Z,3.80
2023-02-28T05:12:03.492Z,4.00
2023-02-28T05:14:33.324Z,3.80
2023-02-28T05:17:01.631Z,3.80
2023-02-28T05:19:30.277Z,3.80
2023-02-28T05:21:58.696Z,3.70
2023-02-28T05:24:27.126Z,3.80
2023-02-28T05:26:56.752Z,4.00
2023-02-28T05:29:25.235Z,3.70
2023-02-28T05:31:55.028Z,3.70
2023-02-28T05:34:23.406Z,3.70
2023-02-28T05:36:51.720Z,3.60
2023-02-28T05:39:20.009Z,3.60
2023-02-28T05:41:48.321Z,3.60
2023-02-28T05:44:17.883Z,3.60
2023-02-28T05:46:46.265Z,3.70
2023-02-28T05:49:16.014Z,3.60
2023-02-28T05:51:44.350Z,3.60
2023-02-28T05:54:13.948Z,3.60
2023-02-28T05:56:45.068Z,3.60
2023-02-28T05:59:13.794Z,3.80
2023-02-28T06:01:48.932Z,3.60
2023-02-28T06:04:31.382Z,3.60
2023-02-28T06:07:00.460Z,4.00
2023-02-28T06:09:28.831Z,3.70
2023-02-28T06:11:57.197Z,3.70
2023-02-28T06:14:25.588Z,3.80
2023-02-28T06:16:54.233Z,3.70
2023-02-28T06:19:26.556Z,3.70
2023-02-28T06:21:56.290Z,3.70
2023-02-28T06:24:29.022Z,3.70
2023-02-28T06:26:58.609Z,3.70
2023-02-28T06:29:27.633Z,3.70
2023-02-28T06:31:56.386Z,3.70
2023-02-28T06:34:26.167Z,3.70
2023-02-28T06:36:55.050Z,3.70
2023-02-28T06:39:23.365Z,3.90
2023-02-28T06:41:55.763Z,3.70
2023-02-28T06:44:25.765Z,3.70
2023-02-28T06:46:54.165Z,3.70
2023-02-28T06:49:22.497Z,3.70
2023-02-28T06:51:52.113Z,3.70
2023-02-28T06:54:20.410Z,3.70
2023-02-28T06:56:48.858Z,3.80
2023-02-28T06:59:17.235Z,3.80
2023-02-28T07:01:46.295Z,3.80
2023-02-28T07:04:15.211Z,3.40
2023-02-28T07:06:43.498Z,3.80
2023-02-28T07:09:14.828Z,3.80
2023-02-28T07:11:44.011Z,3.80
2023-02-28T07:14:12.317Z,3.80
2023-02-28T07:16:40.635Z,3.80
2023-02-28T07:19:08.949Z,3.80
2023-02-28T07:21:37.247Z,4.00
2023-02-28T07:24:06.228Z,3.80
2023-02-28T07:26:36.155Z,3.80
2023-02-28T07:29:04.491Z,3.90
2023-02-28T07:31:33.016Z,3.80
2023-02-28T07:34:01.459Z,3.80
2023-02-28T07:36:29.814Z,3.80
2023-02-28T07:38:58.112Z,3.80
2023-02-28T07:41:28.975Z,3.80
2023-02-28T07:44:00.626Z,3.90
2023-02-28T07:46:30.914Z,3.80
2023-02-28T07:49:00.528Z,3.80
2023-02-28T07:51:29.347Z,3.80
2023-02-28T07:53:58.210Z,3.80
2023-02-28T07:56:26.757Z,3.80
2023-02-28T07:58:55.146Z,3.80
2023-02-28T08:01:24.897Z,3.80
2023-02-28T08:03:53.291Z,3.90
2023-02-28T08:06:25.636Z,3.80
2023-02-28T08:08:57.033Z,3.90
2023-02-28T08:11:25.354Z,3.90
2023-02-28T08:13:53.622Z,3.90
2023-02-28T08:16:23.498Z,3.90
2023-02-28T08:18:54.853Z,3.90
2023-02-28T08:21:23.682Z,3.90
2023-02-28T08:23:53.479Z,4.00
2023-02-28T08:26:22.426Z,4.00
2023-02-28T08:28:51.341Z,4.00
2023-02-28T08:31:20.226Z,4.00
2023-02-28T08:33:49.716Z,4.00
2023-02-28T08:36:19.946Z,4.10
2023-02-28T08:38:48.268Z,4.10
2023-02-28T08:41:16.667Z,4.10
2023-02-28T08:43:45.101Z,4.20
2023-02-28T08:46:15.592Z,4.20
2023-02-28T08:48:44.832Z,4.20
2023-02-28T08:51:17.294Z,4.20
2023-02-28T08:53:47.541Z,4.30
2023-02-28T08:56:18.427Z,4.50
2023-02-28T08:58:48.654Z,4.40
2023-02-28T09:01:19.667Z,4.40
2023-02-28T09:03:49.558Z,4.50
2023-02-28T09:06:21.403Z,4.50
2023-02-28T09:08:51.337Z,4.50
2023-02-28T09:11:20.450Z,4.60
2023-02-28T09:13:48.878Z,4.60
2023-02-28T09:16:19.137Z,4.60
2023-02-28T09:18:47.618Z,4.70
2023-02-28T09:21:18.925Z,4.70
2023-02-28T09:23:51.824Z,4.80
2023-02-28T09:26:23.238Z,4.80
2023-02-28T09:28:51.836Z,4.80
2023-02-28T09:31:24.863Z,4.90
2023-02-28T09:33:55.385Z,5.20
2023-02-28T09:36:34.518Z,5.00
2023-02-28T09:39:11.490Z,5.00
2023-02-28T09:41:51.041Z,5.10
2023-02-28T09:44:32.684Z,5.10
2023-02-28T09:47:09.403Z,5.10
2023-02-28T09:49:43.316Z,5.20
2023-02-28T09:52:17.188Z,5.20
2023-02-28T09:54:47.286Z,5.20
2023-02-28T09:57:26.370Z,5.30
2023-02-28T10:00:08.994Z,5.30
2023-02-28T10:02:54.801Z,5.30
2023-02-28T10:05:27.477Z,5.30
2023-02-28T10:08:09.152Z,5.40
2023-02-28T10:10:43.881Z,5.40
2023-02-28T10:13:24.150Z,5.40
2023-02-28T10:15:58.434Z,5.40
2023-02-28T10:18:31.311Z,5.70
2023-02-28T10:21:01.756Z,5.50
2023-02-28T10:23:34.806Z,5.50
2023-02-28T10:26:16.965Z,5.70
2023-02-28T10:28:45.774Z,5.60
2023-02-28T10:31:20.474Z,5.90
2023-02-28T10:33:49.826Z,5.60
2023-02-28T10:36:22.868Z,5.70
2023-02-28T10:38:52.282Z,5.70
2023-02-28T10:41:35.627Z,5.70
2023-02-28T10:44:20.305Z,5.70
2023-02-28T10:46:48.836Z,5.80
2023-02-28T10:49:22.966Z,5.80
2023-02-28T10:51:57.880Z,5.80
2023-02-28T10:54:31.789Z,5.90
2023-02-28T10:57:20.134Z,5.90
2023-02-28T10:59:52.824Z,5.90
2023-02-28T11:02:39.177Z,5.90
2023-02-28T11:05:31.707Z,6.00
2023-02-28T11:08:08.990Z,6.00
2023-02-28T11:10:37.948Z,6.00
2023-02-28T11:13:08.033Z,6.30
2023-02-28T11:15:37.847Z,6.30
2023-02-28T11:18:25.547Z,6.10
2023-02-28T11:20:56.918Z,6.20
2023-02-28T11:23:29.296Z,6.20
2023-02-28T11:26:01.415Z,6.20
2023-02-28T11:28:34.703Z,6.30
2023-02-28T11:31:17.947Z,6.30
2023-02-28T11:33:51.214Z,6.40
2023-02-28T11:36:25.728Z,6.40
2023-02-28T11:38:56.988Z,6.40
2023-02-28T11:41:51.199Z,6.50
2023-02-28T11:44:41.804Z,6.50
2023-02-28T11:47:17.890Z,6.80
2023-02-28T11:49:56.680Z,6.60
2023-02-28T11:52:40.588Z,6.60
2023-02-28T11:55:20.398Z,6.70
2023-02-28T11:58:19.516Z,6.70
2023-02-28T12:01:04.583Z,6.70
2023-02-28T12:03:47.272Z,6.90
2023-02-28T12:06:24.614Z,6.80
2023-02-28T12:09:14.628Z,7.00
2023-02-28T12:11:56.715Z,6.80
2023-02-28T12:15:01.640Z,6.90
2023-02-28T12:17:53.717Z,6.90
2023-02-28T12:20:34.530Z,6.90
2023-02-28T12:23:29.266Z,7.10
2023-02-28T12:26:11.223Z,7.00
2023-02-28T12:28:45.233Z,7.00
2023-02-28T12:31:20.746Z,7.10
2023-02-28T12:33:55.158Z,7.30
2023-02-28T12:36:25.021Z,7.10
2023-02-28T12:39:01.224Z,7.30
2023-02-28T12:41:37.157Z,7.20
2023-02-28T12:44:12.524Z,7.20
2023-02-28T12:46:46.866Z,7.20
2023-02-28T12:49:20.102Z,7.30
2023-02-28T12:51:49.385Z,7.50
2023-02-28T12:54:25.631Z,7.50
2023-02-28T12:57:05.921Z,7.30
2023-02-28T12:59:42.473Z,7.30
2023-02-28T13:03:09.729Z,7.30
2023-02-28T13:06:10.438Z,7.30
2023-02-28T13:09:02.063Z,7.30
2023-02-28T13:11:33.869Z,7.30
2023-02-28T13:14:05.273Z,7.30
2023-02-28T13:17:00.610Z,7.30
2023-02-28T13:19:32.142Z,7.50
2023-02-28T13:22:04.464Z,7.30
2023-02-28T13:24:54.393Z,7.30
2023-02-28T13:27:41.529Z,7.40
2023-02-28T13:31:05.220Z,7.30
2023-02-28T13:33:34.595Z,7.30
2023-02-28T13:36:28.098Z,7.30
2023-02-28T13:39:01.577Z,7.30
2023-02-28T13:41:49.973Z,7.40
2023-02-28T13:44:24.127Z,7.30
2023-02-28T13:47:35.850Z,7.30
2023-02-28T13:50:29.149Z,7.30
2023-02-28T13:53:39.073Z,7.30
2023-02-28T13:56:27.534Z,7.30
2023-02-28T13:59:02.075Z,7.30
2023-02-28T14:01:44.493Z,7.50
2023-02-28T14:04:48.481Z,7.30
2023-02-28T14:07:24.708Z,7.60
2023-02-28T14:10:06.207Z,7.50
2023-02-28T14:13:17.073Z,7.40
2023-02-28T14:15:59.585Z,7.40
2023-02-28T14:18:32.657Z,7.60
2023-02-28T14:21:13.369Z,7.40
2023-02-28T14:24:11.554Z,7.40
2023-02-28T14:27:00.954Z,7.60
2023-02-28T14:30:13.609Z,7.40
2023-02-28T14:32:51.814Z,7.40
2023-02-28T14:35:42.303Z,7.40
2023-02-28T14:38:19.862Z,7.60
2023-02-28T14:40:50.000Z,7.60
2023-02-28T14:43:25.430Z,7.40
2023-02-28T14:46:00.499Z,7.40
2023-02-28T14:48:29.687Z,7.50
2023-02-28T14:51:01.125Z,7.60
2023-02-28T14:53:37.109Z,7.40
2023-02-28T14:56:06.382Z,7.40
2023-02-28T14:58:36.050Z,7.40
2023-02-28T15:01:06.676Z,7.30
2023-02-28T15:03:38.098Z,7.40
2023-02-28T15:06:13.421Z,7.50
2023-02-28T15:08:41.953Z,7.40
2023-02-28T15:11:15.517Z,7.40
2023-02-28T15:13:49.513Z,7.60
2023-02-28T15:16:23.155Z,7.50
2023-02-28T15:19:00.254Z,7.50
2023-02-28T15:21:33.203Z,7.40
2023-02-28T15:24:07.746Z,7.40
2023-02-28T15:26:40.718Z,7.60
2023-02-28T15:29:14.160Z,7.50
2023-02-28T15:31:56.840Z,7.60
2023-02-28T15:34:43.508Z,7.40
2023-02-28T15:37:41.572Z,7.40
2023-02-28T15:40:25.096Z,7.40
2023-02-28T15:43:10.187Z,7.50
2023-02-28T15:45:42.522Z,7.50
2023-02-28T15:48:24.479Z,7.70
2023-02-28T15:50:55.858Z,7.40
2023-02-28T15:53:27.401Z,7.40
2023-02-28T15:56:04.142Z,7.20
2023-02-28T15:58:33.132Z,7.40
2023-02-28T16:01:19.831Z,7.40
2023-02-28T16:03:53.141Z,7.40
2023-02-28T16:06:40.664Z,7.40
2023-02-28T16:09:14.293Z,7.60
2023-02-28T16:11:46.852Z,7.40
2023-02-28T16:14:19.458Z,7.40
2023-02-28T16:16:51.510Z,7.40
2023-02-28T16:19:21.744Z,7.60
2023-02-28T16:21:50.575Z,7.40
2023-02-28T16:24:18.873Z,7.40
2023-02-28T16:26:50.439Z,7.40
2023-02-28T16:29:26.227Z,7.40
2023-02-28T16:31:55.543Z,7.80
2023-02-28T16:34:27.579Z,7.40
2023-02-28T16:36:55.893Z,7.40
2023-02-28T16:39:24.235Z,7.40
2023-02-28T16:41:53.498Z,7.40
2023-02-28T16:44:30.162Z,7.70
2023-02-28T16:46:58.892Z,7.70
2023-02-28T16:49:28.789Z,7.40
2023-02-28T16:51:57.157Z,7.70
2023-02-28T16:54:25.688Z,7.50
2023-02-28T16:56:54.272Z,7.40
2023-02-28T16:59:28.973Z,7.70
2023-02-28T17:01:58.720Z,7.70
2023-02-28T17:04:29.208Z,7.50
2023-02-28T17:06:57.549Z,7.40
2023-02-28T17:09:36.751Z,7.40
2023-02-28T17:12:10.173Z,7.30
2023-02-28T17:14:38.694Z,7.60
2023-02-28T17:17:07.458Z,7.40
2023-02-28T17:19:39.269Z,7.40
2023-02-28T17:22:07.742Z,7.30
2023-02-28T17:24:36.076Z,7.30
2023-02-28T17:27:04.874Z,7.30
2023-02-28T17:29:33.275Z,7.30
2023-02-28T17:32:12.215Z,7.30
2023-02-28T17:34:47.741Z,7.30
2023-02-28T17:37:16.104Z,7.60
2023-02-28T17:39:44.521Z,7.20
2023-02-28T17:42:13.190Z,7.40
2023-02-28T17:44:41.514Z,7.20
2023-02-28T17:47:13.939Z,7.50
2023-02-28T17:49:42.660Z,7.50
2023-02-28T17:52:12.391Z,7.20
2023-02-28T17:54:40.771Z,7.20
2023-02-28T17:57:15.237Z,7.20
2023-02-28T17:59:43.562Z,7.10
2023-02-28T18:02:15.078Z,7.10
2023-02-28T18:04:43.374Z,7.10
2023-02-28T18:07:14.246Z,7.30
2023-02-28T18:09:42.534Z,7.30
2023-02-28T18:12:10.883Z,7.30
2023-02-28T18:14:39.493Z,7.00
2023-02-28T18:17:07.911Z,7.30
2023-02-28T18:19:36.418Z,6.90
2023-02-28T18:22:04.730Z,7.20
2023-02-28T18:24:34.413Z,7.10
2023-02-28T18:27:02.820Z,6.90
2023-02-28T18:29:32.605Z,6.80
2023-02-28T18:32:02.357Z,6.80
2023-02-28T18:34:31.689Z,6.80
2023-02-28T18:37:00.140Z,6.70
2023-02-28T18:39:28.447Z,6.70
2023-02-28T18:41:58.137Z,6.70
2023-02-28T18:44:26.455Z,6.70
2023-02-28T18:46:54.872Z,6.60
2023-02-28T18:49:23.758Z,6.60
2023-02-28T18:51:56.164Z,6.60
2023-02-28T18:54:26.429Z,6.50
2023-02-28T18:56:56.367Z,6.60
2023-02-28T18:59:27.580Z,6.80
2023-02-28T19:01:56.286Z,6.50
2023-02-28T19:04:25.314Z,6.40
2023-02-28T19:06:53.806Z,6.40
2023-02-28T19:09:22.119Z,6.40
2023-02-28T19:11:50.568Z,6.40
2023-02-28T19:14:20.325Z,6.30
2023-02-28T19:16:50.845Z,6.50
2023-02-28T19:19:19.544Z,6.50
2023-02-28T19:21:47.836Z,6.20
2023-02-28T19:24:16.138Z,6.20
2023-02-28T19:26:44.475Z,6.20
2023-02-28T19:29:12.801Z,6.40
2023-02-28T19:31:41.298Z,6.10
2023-02-28T19:34:11.051Z,6.10
2023-02-28T19:36:39.386Z,6.40
2023-02-28T19:39:07.925Z,6.00
2023-02-28T19:41:36.253Z,6.00
2023-02-28T19:44:04.660Z,6.00
2023-02-28T19:46:33.051Z,6.00
2023-02-28T19:49:01.394Z,6.20
2023-02-28T19:51:31.258Z,5.90
2023-02-28T19:53:59.679Z,5.90
2023-02-28T19:56:28.333Z,6.10
2023-02-28T19:58:59.363Z,5.80
2023-02-28T20:01:27.780Z,5.80
2023-02-28T20:03:56.150Z,5.90
2023-02-28T20:06:24.533Z,6.00
2023-02-28T20:08:56.048Z,5.70
2023-02-28T20:11:24.874Z,5.70
2023-02-28T20:13:55.101Z,5.90
2023-02-28T20:16:23.656Z,5.70
2023-02-28T20:18:52.590Z,5.60
2023-02-28T20:21:21.120Z,5.60
2023-02-28T20:23:49.695Z,5.60
2023-02-28T20:26:20.189Z,5.60
2023-02-28T20:28:49.581Z,5.60
2023-02-28T20:31:22.217Z,5.50
2023-02-28T20:33:51.995Z,5.50
2023-02-28T20:36:21.412Z,5.80
2023-02-28T20:38:50.712Z,5.50
2023-02-28T20:41:20.952Z,5.50
2023-02-28T20:43:55.707Z,5.50
2023-02-28T20:46:24.091Z,5.50
2023-02-28T20:48:53.000Z,5.70
2023-02-28T20:51:22.117Z,5.40
2023-02-28T20:53:50.863Z,5.40
2023-02-28T20:56:23.728Z,5.40
2023-02-28T20:58:55.907Z,5.60
2023-02-28T21:01:26.856Z,5.40
2023-02-28T21:03:57.590Z,5.40
2023-02-28T21:06:28.580Z,5.40
2023-02-28T21:08:58.313Z,5.30
2023-02-28T21:11:31.012Z,5.30
2023-02-28T21:14:01.409Z,5.30
2023-02-28T21:16:30.750Z,5.30
2023-02-28T21:19:03.914Z,5.30
2023-02-28T21:21:34.160Z,5.20
2023-02-28T21:24:02.695Z,5.50
2023-02-28T21:26:33.171Z,5.20
2023-02-28T21:29:03.782Z,5.30
2023-02-28T21:31:34.333Z,5.10
2023-02-28T21:34:05.245Z,5.10
2023-02-28T21:36:37.798Z,5.10
2023-02-28T21:39:09.873Z,5.10
2023-02-28T21:41:39.566Z,5.10
2023-02-28T21:44:07.912Z,5.10
2023-02-28T21:46:36.374Z,5.10
2023-02-28T21:49:04.814Z,5.00
2023-02-28T21:51:33.508Z,5.00
2023-02-28T21:54:02.591Z,5.00
2023-02-28T21:56:33.613Z,5.00
2023-02-28T21:59:04.632Z,5.00
2023-02-28T22:01:35.632Z,4.60
2023-02-28T22:04:07.148Z,4.90
2023-02-28T22:06:39.388Z,4.90
2023-02-28T22:09:10.867Z,5.10
2023-02-28T22:11:40.822Z,5.00
2023-02-28T22:14:12.559Z,4.90
2023-02-28T22:16:51.334Z,4.90
2023-02-28T22:19:21.677Z,4.80
2023-02-28T22:21:50.432Z,4.80
2023-02-28T22:24:20.810Z,4.80
2023-02-28T22:26:50.466Z,4.80
2023-02-28T22:29:20.510Z,4.80
2023-02-28T22:31:49.085Z,4.80
2023-02-28T22:34:17.650Z,4.70
2023-02-28T22:36:46.225Z,4.70
2023-02-28T22:39:14.575Z,4.70
2023-02-28T22:41:42.969Z,4.70
2023-02-28T22:44:12.994Z,4.70
2023-02-28T22:46:42.779Z,4.70
2023-02-28T22:49:11.159Z,4.70
2023-02-28T22:51:39.517Z,4.70
2023-02-28T22:54:07.811Z,4.70
2023-02-28T22:56:36.166Z,4.60
2023-02-28T22:59:05.136Z,4.60
2023-02-28T23:01:35.537Z,4.60
2023-02-28T23:04:05.680Z,4.60
2023-02-28T23:06:37.831Z,4.50
2023-02-28T23:09:09.816Z,4.60
2023-02-28T23:11:41.492Z,4.50
2023-02-28T23:14:12.775Z,4.50
2023-02-28T23:16:46.141Z,4.50
2023-02-28T23:19:19.010Z,4.50
2023-02-28T23:21:50.977Z,4.50
2023-02-28T23:24:23.783Z,4.50
2023-02-28T23:26:55.711Z,4.50
2023-02-28T23:29:26.110Z,4.50
2023-02-28T23:31:55.043Z,4.70
2023-02-28T23:34:28.357Z,4.40
2023-02-28T23:36:58.606Z,4.70
2023-02-28T23:39:28.965Z,4.50
2023-02-28T23:41:57.858Z,4.40
2023-02-28T23:44:26.377Z,4.40
2023-02-28T23:46:55.682Z,4.40
2023-02-28T23:49:25.765Z,4.40
2023-02-28T23:51:54.934Z,4.30
2023-02-28T23:54:23.363Z,4.30
2023-02-28T23:56:51.692Z,4.30
2023-02-28T23:59:20.390Z,4.30
